KCVO - Corvallis Muni A, Oregon
Updated: Wed, 25-Nov-2020 4:56pm PST
Overcast
Overcast
 Wind from SW
Wind: SW 6 mph , 9 km/h
Temperature: 46°F , 8°C
Wind Chill: 43°F , 6°C
Dew Point: 43°F , 6°C
Humidity: 87%
Barometer: 30.28 inHg , 1025.4 hPa
Clouds: Overcast
Visibility: 10 miles , 16 km
Cloud details: Partly Cloudy 3400 ft
Mostly Cloudy 4400 ft
Overcast 11000 ft
2020/11/26 00:56 KCVO 260056Z AUTO 22005KT 10SM SCT034 BKN044 OVC110 08/06 A3028 RMK AO2 RAB2358E18 SLP255 P0000 T00780061